sensor_id;sensor_type;location;lat;lon;timestamp;temperature;humidity
39033;DHT22;24794;51.982;5.878;2023-09-19T00:00:10;15.80;99.90
39033;DHT22;24794;51.982;5.878;2023-09-19T00:01:13;15.80;99.90
39033;DHT22;24794;51.982;5.878;2023-09-19T00:02:14;15.80;99.90
39033;DHT22;24794;51.982;5.878;2023-09-19T00:03:15;15.80;99.90
39033;DHT22;24794;51.982;5.878;2023-09-19T00:04:15;15.80;99.90
39033;DHT22;24794;51.982;5.878;2023-09-19T00:05:16;15.80;99.90
39033;DHT22;24794;51.982;5.878;2023-09-19T00:06:16;15.80;99.90
39033;DHT22;24794;51.982;5.878;2023-09-19T00:07:17;15.80;99.90
39033;DHT22;24794;51.982;5.878;2023-09-19T00:08:17;15.80;99.90
39033;DHT22;24794;51.982;5.878;2023-09-19T00:09:22;15.80;99.90
39033;DHT22;24794;51.982;5.878;2023-09-19T00:10:27;15.80;99.90
39033;DHT22;24794;51.982;5.878;2023-09-19T00:11:31;15.80;99.90
39033;DHT22;24794;51.982;5.878;2023-09-19T00:12:31;15.80;99.90
39033;DHT22;24794;51.982;5.878;2023-09-19T00:13:32;15.70;99.90
39033;DHT22;24794;51.982;5.878;2023-09-19T00:14:34;15.80;99.90
39033;DHT22;24794;51.982;5.878;2023-09-19T00:15:40;15.80;99.90
39033;DHT22;24794;51.982;5.878;2023-09-19T00:16:41;15.80;99.90
39033;DHT22;24794;51.982;5.878;2023-09-19T00:17:41;15.80;99.90
39033;DHT22;24794;51.982;5.878;2023-09-19T00:18:43;15.80;99.90
39033;DHT22;24794;51.982;5.878;2023-09-19T00:19:44;15.80;99.90
39033;DHT22;24794;51.982;5.878;2023-09-19T00:20:46;15.80;99.90
39033;DHT22;24794;51.982;5.878;2023-09-19T00:21:48;15.80;99.90
39033;DHT22;24794;51.982;5.878;2023-09-19T00:22:50;15.80;99.90
39033;DHT22;24794;51.982;5.878;2023-09-19T00:23:53;15.80;99.90
39033;DHT22;24794;51.982;5.878;2023-09-19T00:24:54;15.80;99.90
39033;DHT22;24794;51.982;5.878;2023-09-19T00:26:01;15.80;99.90
39033;DHT22;24794;51.982;5.878;2023-09-19T00:27:02;15.80;99.90
39033;DHT22;24794;51.982;5.878;2023-09-19T00:28:03;15.90;99.90
39033;DHT22;24794;51.982;5.878;2023-09-19T00:29:04;15.80;99.90
39033;DHT22;24794;51.982;5.878;2023-09-19T00:30:09;15.80;99.90
39033;DHT22;24794;51.982;5.878;2023-09-19T00:31:19;15.90;99.90
39033;DHT22;24794;51.982;5.878;2023-09-19T00:32:20;15.90;99.90
39033;DHT22;24794;51.982;5.878;2023-09-19T00:33:22;15.90;99.90
39033;DHT22;24794;51.982;5.878;2023-09-19T00:34:23;15.90;99.90
39033;DHT22;24794;51.982;5.878;2023-09-19T00:35:23;15.90;99.90
39033;DHT22;24794;51.982;5.878;2023-09-19T00:36:24;15.90;99.90
39033;DHT22;24794;51.982;5.878;2023-09-19T00:37:25;15.90;99.90
39033;DHT22;24794;51.982;5.878;2023-09-19T00:38:25;15.90;99.90
39033;DHT22;24794;51.982;5.878;2023-09-19T00:39:27;15.90;99.90
39033;DHT22;24794;51.982;5.878;2023-09-19T00:40:31;15.90;99.90
39033;DHT22;24794;51.982;5.878;2023-09-19T00:41:33;15.90;99.90
39033;DHT22;24794;51.982;5.878;2023-09-19T00:42:35;15.90;99.90
39033;DHT22;24794;51.982;5.878;2023-09-19T00:43:38;15.90;99.90
39033;DHT22;24794;51.982;5.878;2023-09-19T00:44:40;15.90;99.90
39033;DHT22;24794;51.982;5.878;2023-09-19T00:45:43;15.90;99.90
39033;DHT22;24794;51.982;5.878;2023-09-19T00:46:44;15.90;99.90
39033;DHT22;24794;51.982;5.878;2023-09-19T00:47:49;15.90;99.90
39033;DHT22;24794;51.982;5.878;2023-09-19T00:48:50;15.90;99.90
39033;DHT22;24794;51.982;5.878;2023-09-19T00:49:51;15.90;99.90
39033;DHT22;24794;51.982;5.878;2023-09-19T00:50:53;16.00;99.90
39033;DHT22;24794;51.982;5.878;2023-09-19T00:51:55;16.00;99.90
39033;DHT22;24794;51.982;5.878;2023-09-19T00:52:55;16.00;99.90
39033;DHT22;24794;51.982;5.878;2023-09-19T00:53:59;16.00;99.90
39033;DHT22;24794;51.982;5.878;2023-09-19T00:54:59;16.00;99.90
39033;DHT22;24794;51.982;5.878;2023-09-19T00:56:00;16.00;99.90
39033;DHT22;24794;51.982;5.878;2023-09-19T00:57:01;16.00;99.90
39033;DHT22;24794;51.982;5.878;2023-09-19T00:58:02;16.00;99.90
39033;DHT22;24794;51.982;5.878;2023-09-19T00:59:03;16.10;99.90
39033;DHT22;24794;51.982;5.878;2023-09-19T01:00:07;16.00;99.90
39033;DHT22;24794;51.982;5.878;2023-09-19T01:01:12;16.10;99.90
39033;DHT22;24794;51.982;5.878;2023-09-19T01:02:15;16.10;99.90
39033;DHT22;24794;51.982;5.878;2023-09-19T01:03:17;16.10;99.90
39033;DHT22;24794;51.982;5.878;2023-09-19T01:04:18;16.10;99.90
39033;DHT22;24794;51.982;5.878;2023-09-19T01:05:19;16.10;99.90
39033;DHT22;24794;51.982;5.878;2023-09-19T01:06:20;16.10;99.90
39033;DHT22;24794;51.982;5.878;2023-09-19T01:07:21;16.10;99.90
39033;DHT22;24794;51.982;5.878;2023-09-19T01:08:23;16.10;99.90
39033;DHT22;24794;51.982;5.878;2023-09-19T01:09:25;16.00;99.90
39033;DHT22;24794;51.982;5.878;2023-09-19T01:10:27;16.10;99.90
39033;DHT22;24794;51.982;5.878;2023-09-19T01:11:38;16.10;99.90
39033;DHT22;24794;51.982;5.878;2023-09-19T01:14:28;16.00;99.90
39033;DHT22;24794;51.982;5.878;2023-09-19T01:15:40;16.10;99.90
39033;DHT22;24794;51.982;5.878;2023-09-19T01:16:50;16.00;99.90
39033;DHT22;24794;51.982;5.878;2023-09-19T01:18:11;16.00;99.90
39033;DHT22;24794;51.982;5.878;2023-09-19T01:21:03;16.00;99.90
39033;DHT22;24794;51.982;5.878;2023-09-19T01:23:04;16.00;99.90
39033;DHT22;24794;51.982;5.878;2023-09-19T01:24:46;15.90;99.90
39033;DHT22;24794;51.982;5.878;2023-09-19T01:27:47;15.90;99.90
39033;DHT22;24794;51.982;5.878;2023-09-19T01:29:17;15.90;99.90
39033;DHT22;24794;51.982;5.878;2023-09-19T01:30:24;15.80;99.90
39033;DHT22;24794;51.982;5.878;2023-09-19T01:31:31;15.80;99.90
39033;DHT22;24794;51.982;5.878;2023-09-19T01:32:38;15.80;99.90
39033;DHT22;24794;51.982;5.878;2023-09-19T01:33:55;15.80;99.90
39033;DHT22;24794;51.982;5.878;2023-09-19T01:34:59;15.80;99.90
39033;DHT22;24794;51.982;5.878;2023-09-19T01:36:06;15.80;99.90
39033;DHT22;24794;51.982;5.878;2023-09-19T01:37:08;15.80;99.90
39033;DHT22;24794;51.982;5.878;2023-09-19T01:38:08;15.80;99.90
39033;DHT22;24794;51.982;5.878;2023-09-19T01:39:13;15.80;99.90
39033;DHT22;24794;51.982;5.878;2023-09-19T01:40:18;15.80;99.90
39033;DHT22;24794;51.982;5.878;2023-09-19T01:41:37;15.80;99.90
39033;DHT22;24794;51.982;5.878;2023-09-19T01:42:45;15.90;99.90
39033;DHT22;24794;51.982;5.878;2023-09-19T01:43:49;15.90;99.90
39033;DHT22;24794;51.982;5.878;2023-09-19T01:45:08;15.90;99.90
39033;DHT22;24794;51.982;5.878;2023-09-19T01:46:18;15.80;99.90
39033;DHT22;24794;51.982;5.878;2023-09-19T01:47:32;15.90;99.90
39033;DHT22;24794;51.982;5.878;2023-09-19T01:48:46;15.90;99.90
39033;DHT22;24794;51.982;5.878;2023-09-19T01:49:56;15.80;99.90
39033;DHT22;24794;51.982;5.878;2023-09-19T01:51:03;15.90;99.90
39033;DHT22;24794;51.982;5.878;2023-09-19T01:52:11;15.90;99.90
39033;DHT22;24794;51.982;5.878;2023-09-19T01:53:26;15.90;99.90
39033;DHT22;24794;51.982;5.878;2023-09-19T01:54:33;15.80;99.90
39033;DHT22;24794;51.982;5.878;2023-09-19T01:55:47;15.90;99.90
39033;DHT22;24794;51.982;5.878;2023-09-19T01:57:05;15.80;99.90
39033;DHT22;24794;51.982;5.878;2023-09-19T01:58:29;15.90;99.90
39033;DHT22;24794;51.982;5.878;2023-09-19T01:59:38;15.90;99.90
39033;DHT22;24794;51.982;5.878;2023-09-19T02:00:42;15.90;99.90
39033;DHT22;24794;51.982;5.878;2023-09-19T02:01:45;15.80;99.90
39033;DHT22;24794;51.982;5.878;2023-09-19T02:02:47;15.80;99.90
39033;DHT22;24794;51.982;5.878;2023-09-19T02:03:48;15.90;99.90
39033;DHT22;24794;51.982;5.878;2023-09-19T02:04:50;15.80;99.90
39033;DHT22;24794;51.982;5.878;2023-09-19T02:05:51;15.90;99.90
39033;DHT22;24794;51.982;5.878;2023-09-19T02:06:54;15.90;99.90
39033;DHT22;24794;51.982;5.878;2023-09-19T02:07:55;15.80;99.90
39033;DHT22;24794;51.982;5.878;2023-09-19T02:08:56;15.80;99.90
39033;DHT22;24794;51.982;5.878;2023-09-19T02:09:56;15.80;99.90
39033;DHT22;24794;51.982;5.878;2023-09-19T02:10:57;15.80;99.90
39033;DHT22;24794;51.982;5.878;2023-09-19T02:11:57;15.80;99.90
39033;DHT22;24794;51.982;5.878;2023-09-19T02:12:59;15.80;99.90
39033;DHT22;24794;51.982;5.878;2023-09-19T02:14:01;15.80;99.90
39033;DHT22;24794;51.982;5.878;2023-09-19T02:15:02;15.80;99.90
39033;DHT22;24794;51.982;5.878;2023-09-19T02:16:02;15.80;99.90
39033;DHT22;24794;51.982;5.878;2023-09-19T02:17:04;15.80;99.90
39033;DHT22;24794;51.982;5.878;2023-09-19T02:18:10;15.70;99.90
39033;DHT22;24794;51.982;5.878;2023-09-19T02:19:11;15.70;99.90
39033;DHT22;24794;51.982;5.878;2023-09-19T02:20:13;15.70;99.90
39033;DHT22;24794;51.982;5.878;2023-09-19T02:21:15;15.70;99.90
39033;DHT22;24794;51.982;5.878;2023-09-19T02:22:17;15.70;99.90
39033;DHT22;24794;51.982;5.878;2023-09-19T02:23:18;15.70;99.90
39033;DHT22;24794;51.982;5.878;2023-09-19T02:24:18;15.60;99.90
39033;DHT22;24794;51.982;5.878;2023-09-19T02:25:19;15.60;99.90
39033;DHT22;24794;51.982;5.878;2023-09-19T02:26:20;15.60;99.90
39033;DHT22;24794;51.982;5.878;2023-09-19T02:27:21;15.60;99.90
39033;DHT22;24794;51.982;5.878;2023-09-19T02:28:21;15.60;99.90
39033;DHT22;24794;51.982;5.878;2023-09-19T02:29:22;15.60;99.90
39033;DHT22;24794;51.982;5.878;2023-09-19T02:30:23;15.60;99.90
39033;DHT22;24794;51.982;5.878;2023-09-19T02:31:26;15.60;99.90
39033;DHT22;24794;51.982;5.878;2023-09-19T02:32:29;15.60;99.90
39033;DHT22;24794;51.982;5.878;2023-09-19T02:33:31;15.60;99.90
39033;DHT22;24794;51.982;5.878;2023-09-19T02:34:35;15.50;99.90
39033;DHT22;24794;51.982;5.878;2023-09-19T02:35:39;15.50;99.90
39033;DHT22;24794;51.982;5.878;2023-09-19T02:36:39;15.50;99.90
39033;DHT22;24794;51.982;5.878;2023-09-19T02:37:40;15.50;99.90
39033;DHT22;24794;51.982;5.878;2023-09-19T02:38:40;15.50;99.90
39033;DHT22;24794;51.982;5.878;2023-09-19T02:39:41;15.50;99.90
39033;DHT22;24794;51.982;5.878;2023-09-19T02:40:42;15.50;99.90
39033;DHT22;24794;51.982;5.878;2023-09-19T02:41:43;15.50;99.90
39033;DHT22;24794;51.982;5.878;2023-09-19T02:42:53;15.50;99.90
39033;DHT22;24794;51.982;5.878;2023-09-19T02:43:54;15.40;99.90
39033;DHT22;24794;51.982;5.878;2023-09-19T02:44:54;15.40;99.90
39033;DHT22;24794;51.982;5.878;2023-09-19T02:45:57;15.40;99.90
39033;DHT22;24794;51.982;5.878;2023-09-19T02:46:57;15.40;99.90
39033;DHT22;24794;51.982;5.878;2023-09-19T02:47:58;15.40;99.90
39033;DHT22;24794;51.982;5.878;2023-09-19T02:48:58;15.40;99.90
39033;DHT22;24794;51.982;5.878;2023-09-19T02:49:59;15.40;99.90
39033;DHT22;24794;51.982;5.878;2023-09-19T02:50:59;15.30;99.90
39033;DHT22;24794;51.982;5.878;2023-09-19T02:52:00;15.30;99.90
39033;DHT22;24794;51.982;5.878;2023-09-19T02:53:01;15.30;99.90
39033;DHT22;24794;51.982;5.878;2023-09-19T02:54:02;15.30;99.90
39033;DHT22;24794;51.982;5.878;2023-09-19T02:55:03;15.30;99.90
39033;DHT22;24794;51.982;5.878;2023-09-19T02:56:06;15.30;99.90
39033;DHT22;24794;51.982;5.878;2023-09-19T02:57:07;15.20;99.90
39033;DHT22;24794;51.982;5.878;2023-09-19T02:58:08;15.20;99.90
39033;DHT22;24794;51.982;5.878;2023-09-19T02:59:08;15.20;99.90
39033;DHT22;24794;51.982;5.878;2023-09-19T03:00:11;15.30;99.90
39033;DHT22;24794;51.982;5.878;2023-09-19T03:01:12;15.20;99.90
39033;DHT22;24794;51.982;5.878;2023-09-19T03:02:13;15.20;99.90
39033;DHT22;24794;51.982;5.878;2023-09-19T03:03:13;15.20;99.90
39033;DHT22;24794;51.982;5.878;2023-09-19T03:04:16;15.20;99.90
39033;DHT22;24794;51.982;5.878;2023-09-19T03:05:21;15.20;99.90
39033;DHT22;24794;51.982;5.878;2023-09-19T03:06:21;15.20;99.90
39033;DHT22;24794;51.982;5.878;2023-09-19T03:07:24;15.20;99.90
39033;DHT22;24794;51.982;5.878;2023-09-19T03:08:25;15.20;99.90
39033;DHT22;24794;51.982;5.878;2023-09-19T03:09:25;15.20;99.90
39033;DHT22;24794;51.982;5.878;2023-09-19T03:10:26;15.20;99.90
39033;DHT22;24794;51.982;5.878;2023-09-19T03:11:28;15.20;99.90
39033;DHT22;24794;51.982;5.878;2023-09-19T03:12:28;15.10;99.90
39033;DHT22;24794;51.982;5.878;2023-09-19T03:13:29;15.10;99.90
39033;DHT22;24794;51.982;5.878;2023-09-19T03:14:31;15.10;99.90
39033;DHT22;24794;51.982;5.878;2023-09-19T03:15:36;15.10;99.90
39033;DHT22;24794;51.982;5.878;2023-09-19T03:16:39;15.10;99.90
39033;DHT22;24794;51.982;5.878;2023-09-19T03:17:43;15.00;99.90
39033;DHT22;24794;51.982;5.878;2023-09-19T03:18:43;15.10;99.90
39033;DHT22;24794;51.982;5.878;2023-09-19T03:19:45;15.00;99.90
39033;DHT22;24794;51.982;5.878;2023-09-19T03:20:54;15.00;99.90
39033;DHT22;24794;51.982;5.878;2023-09-19T03:21:59;15.00;99.90
39033;DHT22;24794;51.982;5.878;2023-09-19T03:23:00;15.00;99.90
39033;DHT22;24794;51.982;5.878;2023-09-19T03:24:00;15.00;99.90
39033;DHT22;24794;51.982;5.878;2023-09-19T03:25:01;15.00;99.90
39033;DHT22;24794;51.982;5.878;2023-09-19T03:26:01;15.00;99.90
39033;DHT22;24794;51.982;5.878;2023-09-19T03:27:02;14.90;99.90
39033;DHT22;24794;51.982;5.878;2023-09-19T03:28:03;14.90;99.90
39033;DHT22;24794;51.982;5.878;2023-09-19T03:29:07;15.00;99.90
39033;DHT22;24794;51.982;5.878;2023-09-19T03:30:10;14.90;99.90
39033;DHT22;24794;51.982;5.878;2023-09-19T03:31:13;14.90;99.90
39033;DHT22;24794;51.982;5.878;2023-09-19T03:32:14;14.90;99.90
39033;DHT22;24794;51.982;5.878;2023-09-19T03:33:14;14.90;99.90
39033;DHT22;24794;51.982;5.878;2023-09-19T03:34:15;14.90;99.90
39033;DHT22;24794;51.982;5.878;2023-09-19T03:35:16;14.90;99.90
39033;DHT22;24794;51.982;5.878;2023-09-19T03:36:16;14.90;99.90
39033;DHT22;24794;51.982;5.878;2023-09-19T03:37:17;14.90;99.90
39033;DHT22;24794;51.982;5.878;2023-09-19T03:38:18;14.90;99.90
39033;DHT22;24794;51.982;5.878;2023-09-19T03:39:18;14.90;99.90
39033;DHT22;24794;51.982;5.878;2023-09-19T03:40:19;14.90;99.90
39033;DHT22;24794;51.982;5.878;2023-09-19T03:41:21;14.90;99.90
39033;DHT22;24794;51.982;5.878;2023-09-19T03:42:22;14.90;99.90
39033;DHT22;24794;51.982;5.878;2023-09-19T03:43:25;14.90;99.90
39033;DHT22;24794;51.982;5.878;2023-09-19T03:44:26;14.90;99.90
39033;DHT22;24794;51.982;5.878;2023-09-19T03:45:27;14.90;99.90
39033;DHT22;24794;51.982;5.878;2023-09-19T03:46:28;14.90;99.90
39033;DHT22;24794;51.982;5.878;2023-09-19T03:47:29;14.90;99.90
39033;DHT22;24794;51.982;5.878;2023-09-19T03:48:29;14.90;99.90
39033;DHT22;24794;51.982;5.878;2023-09-19T03:49:30;14.90;99.90
39033;DHT22;24794;51.982;5.878;2023-09-19T03:50:31;14.90;99.90
39033;DHT22;24794;51.982;5.878;2023-09-19T03:51:33;14.80;99.90
39033;DHT22;24794;51.982;5.878;2023-09-19T03:52:34;14.80;99.90
39033;DHT22;24794;51.982;5.878;2023-09-19T03:53:35;14.90;99.90
39033;DHT22;24794;51.982;5.878;2023-09-19T03:54:35;14.80;99.90
39033;DHT22;24794;51.982;5.878;2023-09-19T03:55:36;14.80;99.90
39033;DHT22;24794;51.982;5.878;2023-09-19T03:56:36;14.80;99.90
39033;DHT22;24794;51.982;5.878;2023-09-19T03:57:37;14.80;99.90
39033;DHT22;24794;51.982;5.878;2023-09-19T03:58:38;14.80;99.90
39033;DHT22;24794;51.982;5.878;2023-09-19T03:59:40;14.80;99.90
39033;DHT22;24794;51.982;5.878;2023-09-19T04:00:43;14.90;99.90
39033;DHT22;24794;51.982;5.878;2023-09-19T04:01:43;14.80;99.90
39033;DHT22;24794;51.982;5.878;2023-09-19T04:02:44;14.80;99.90
39033;DHT22;24794;51.982;5.878;2023-09-19T04:03:46;14.80;99.90
39033;DHT22;24794;51.982;5.878;2023-09-19T04:04:48;14.80;99.90
39033;DHT22;24794;51.982;5.878;2023-09-19T04:05:49;14.90;99.90
39033;DHT22;24794;51.982;5.878;2023-09-19T04:06:49;14.90;99.90
39033;DHT22;24794;51.982;5.878;2023-09-19T04:07:50;14.90;99.90
39033;DHT22;24794;51.982;5.878;2023-09-19T04:08:50;14.90;99.90
39033;DHT22;24794;51.982;5.878;2023-09-19T04:09:51;14.80;99.90
39033;DHT22;24794;51.982;5.878;2023-09-19T04:10:53;14.90;99.90
39033;DHT22;24794;51.982;5.878;2023-09-19T04:11:54;14.80;99.90
39033;DHT22;24794;51.982;5.878;2023-09-19T04:12:55;14.80;99.90
39033;DHT22;24794;51.982;5.878;2023-09-19T04:13:56;14.80;99.90
39033;DHT22;24794;51.982;5.878;2023-09-19T04:14:57;14.80;99.90
39033;DHT22;24794;51.982;5.878;2023-09-19T04:15:57;14.80;99.90
39033;DHT22;24794;51.982;5.878;2023-09-19T04:16:58;14.80;99.90
39033;DHT22;24794;51.982;5.878;2023-09-19T04:17:58;14.80;99.90
39033;DHT22;24794;51.982;5.878;2023-09-19T04:19:00;14.80;99.90
39033;DHT22;24794;51.982;5.878;2023-09-19T04:20:00;14.80;99.90
39033;DHT22;24794;51.982;5.878;2023-09-19T04:21:01;14.80;99.90
39033;DHT22;24794;51.982;5.878;2023-09-19T04:22:03;14.80;99.90
39033;DHT22;24794;51.982;5.878;2023-09-19T04:23:04;14.80;99.90
39033;DHT22;24794;51.982;5.878;2023-09-19T04:24:06;14.80;99.90
39033;DHT22;24794;51.982;5.878;2023-09-19T04:25:07;14.80;99.90
39033;DHT22;24794;51.982;5.878;2023-09-19T04:26:07;14.80;99.90
39033;DHT22;24794;51.982;5.878;2023-09-19T04:27:08;14.80;99.90
39033;DHT22;24794;51.982;5.878;2023-09-19T04:28:10;14.70;99.90
39033;DHT22;24794;51.982;5.878;2023-09-19T04:29:13;14.80;99.90
39033;DHT22;24794;51.982;5.878;2023-09-19T04:30:14;14.80;99.90
39033;DHT22;24794;51.982;5.878;2023-09-19T04:31:15;14.70;99.90
39033;DHT22;24794;51.982;5.878;2023-09-19T04:32:17;14.70;99.90
39033;DHT22;24794;51.982;5.878;2023-09-19T04:33:17;14.70;99.90
39033;DHT22;24794;51.982;5.878;2023-09-19T04:34:18;14.70;99.90
39033;DHT22;24794;51.982;5.878;2023-09-19T04:35:19;14.70;99.90
39033;DHT22;24794;51.982;5.878;2023-09-19T04:36:19;14.70;99.90
39033;DHT22;24794;51.982;5.878;2023-09-19T04:37:21;14.70;99.90
39033;DHT22;24794;51.982;5.878;2023-09-19T04:38:22;14.70;99.90
39033;DHT22;24794;51.982;5.878;2023-09-19T04:39:23;14.70;99.90
39033;DHT22;24794;51.982;5.878;2023-09-19T04:40:26;14.70;99.90
39033;DHT22;24794;51.982;5.878;2023-09-19T04:41:27;14.70;99.90
39033;DHT22;24794;51.982;5.878;2023-09-19T04:42:27;14.70;99.90
39033;DHT22;24794;51.982;5.878;2023-09-19T04:43:29;14.70;99.90
39033;DHT22;24794;51.982;5.878;2023-09-19T04:44:30;14.60;99.90
39033;DHT22;24794;51.982;5.878;2023-09-19T04:45:31;14.70;99.90
39033;DHT22;24794;51.982;5.878;2023-09-19T04:46:31;14.60;99.90
39033;DHT22;24794;51.982;5.878;2023-09-19T04:47:32;14.60;99.90
39033;DHT22;24794;51.982;5.878;2023-09-19T04:48:32;14.60;99.90
39033;DHT22;24794;51.982;5.878;2023-09-19T04:49:34;14.60;99.90
39033;DHT22;24794;51.982;5.878;2023-09-19T04:50:35;14.60;99.90
39033;DHT22;24794;51.982;5.878;2023-09-19T04:51:37;14.60;99.90
39033;DHT22;24794;51.982;5.878;2023-09-19T04:52:39;14.60;99.90
39033;DHT22;24794;51.982;5.878;2023-09-19T04:53:42;14.60;99.90
39033;DHT22;24794;51.982;5.878;2023-09-19T04:54:44;14.60;99.90
39033;DHT22;24794;51.982;5.878;2023-09-19T04:55:45;14.60;99.90
39033;DHT22;24794;51.982;5.878;2023-09-19T04:56:46;14.60;99.90
39033;DHT22;24794;51.982;5.878;2023-09-19T04:57:48;14.60;99.90
39033;DHT22;24794;51.982;5.878;2023-09-19T04:58:49;14.60;99.90
39033;DHT22;24794;51.982;5.878;2023-09-19T04:59:49;14.60;99.90
39033;DHT22;24794;51.982;5.878;2023-09-19T05:00:50;14.60;99.90
39033;DHT22;24794;51.982;5.878;2023-09-19T05:01:51;14.50;99.90
39033;DHT22;24794;51.982;5.878;2023-09-19T05:02:56;14.50;99.90
39033;DHT22;24794;51.982;5.878;2023-09-19T05:03:56;14.50;99.90
39033;DHT22;24794;51.982;5.878;2023-09-19T05:04:58;14.50;99.90
39033;DHT22;24794;51.982;5.878;2023-09-19T05:05:59;14.50;99.90
39033;DHT22;24794;51.982;5.878;2023-09-19T05:07:00;14.50;99.90
39033;DHT22;24794;51.982;5.878;2023-09-19T05:08:04;14.50;99.90
39033;DHT22;24794;51.982;5.878;2023-09-19T05:09:05;14.50;99.90
39033;DHT22;24794;51.982;5.878;2023-09-19T05:10:06;14.50;99.90
39033;DHT22;24794;51.982;5.878;2023-09-19T05:11:07;14.50;99.90
39033;DHT22;24794;51.982;5.878;2023-09-19T05:12:09;14.50;99.90
39033;DHT22;24794;51.982;5.878;2023-09-19T05:13:11;14.50;99.90
39033;DHT22;24794;51.982;5.878;2023-09-19T05:14:12;14.50;99.90
39033;DHT22;24794;51.982;5.878;2023-09-19T05:15:13;14.50;99.90
39033;DHT22;24794;51.982;5.878;2023-09-19T05:16:18;14.50;99.90
39033;DHT22;24794;51.982;5.878;2023-09-19T05:17:18;14.50;99.90
39033;DHT22;24794;51.982;5.878;2023-09-19T05:18:19;14.50;99.90
39033;DHT22;24794;51.982;5.878;2023-09-19T05:19:20;14.50;99.90
39033;DHT22;24794;51.982;5.878;2023-09-19T05:20:21;14.50;99.90
39033;DHT22;24794;51.982;5.878;2023-09-19T05:21:30;14.50;99.90
39033;DHT22;24794;51.982;5.878;2023-09-19T05:22:31;14.50;99.90
39033;DHT22;24794;51.982;5.878;2023-09-19T05:23:33;14.50;99.90
39033;DHT22;24794;51.982;5.878;2023-09-19T05:24:33;14.60;99.90
39033;DHT22;24794;51.982;5.878;2023-09-19T05:25:35;14.60;99.90
39033;DHT22;24794;51.982;5.878;2023-09-19T05:26:37;14.60;99.90
39033;DHT22;24794;51.982;5.878;2023-09-19T05:27:37;14.60;99.90
39033;DHT22;24794;51.982;5.878;2023-09-19T05:28:38;14.60;99.90
39033;DHT22;24794;51.982;5.878;2023-09-19T05:29:38;14.60;99.90
39033;DHT22;24794;51.982;5.878;2023-09-19T05:30:40;14.60;99.90
39033;DHT22;24794;51.982;5.878;2023-09-19T05:31:43;14.60;99.90
39033;DHT22;24794;51.982;5.878;2023-09-19T05:32:43;14.60;99.90
39033;DHT22;24794;51.982;5.878;2023-09-19T05:33:44;14.60;99.90
39033;DHT22;24794;51.982;5.878;2023-09-19T05:34:45;14.60;99.90
39033;DHT22;24794;51.982;5.878;2023-09-19T05:35:47;14.70;99.90
39033;DHT22;24794;51.982;5.878;2023-09-19T05:36:48;14.60;99.90
39033;DHT22;24794;51.982;5.878;2023-09-19T05:37:53;14.70;99.90
39033;DHT22;24794;51.982;5.878;2023-09-19T05:38:53;14.60;99.90
39033;DHT22;24794;51.982;5.878;2023-09-19T05:39:54;14.70;99.90
39033;DHT22;24794;51.982;5.878;2023-09-19T05:40:54;14.70;99.90
39033;DHT22;24794;51.982;5.878;2023-09-19T05:41:55;14.70;99.90
39033;DHT22;24794;51.982;5.878;2023-09-19T05:42:57;14.70;99.90
39033;DHT22;24794;51.982;5.878;2023-09-19T05:43:57;14.70;99.90
39033;DHT22;24794;51.982;5.878;2023-09-19T05:44:59;14.70;99.90
39033;DHT22;24794;51.982;5.878;2023-09-19T05:46:00;14.70;99.90
39033;DHT22;24794;51.982;5.878;2023-09-19T05:47:01;14.70;99.90
39033;DHT22;24794;51.982;5.878;2023-09-19T05:48:13;14.70;99.90
39033;DHT22;24794;51.982;5.878;2023-09-19T05:49:14;14.70;99.90
39033;DHT22;24794;51.982;5.878;2023-09-19T05:50:14;14.70;99.90
39033;DHT22;24794;51.982;5.878;2023-09-19T05:51:16;14.70;99.90
39033;DHT22;24794;51.982;5.878;2023-09-19T05:52:18;14.70;99.90
39033;DHT22;24794;51.982;5.878;2023-09-19T05:53:20;14.70;99.90
39033;DHT22;24794;51.982;5.878;2023-09-19T05:54:20;14.80;99.90
39033;DHT22;24794;51.982;5.878;2023-09-19T05:55:21;14.70;99.90
39033;DHT22;24794;51.982;5.878;2023-09-19T05:56:24;14.80;99.90
39033;DHT22;24794;51.982;5.878;2023-09-19T05:57:24;14.80;99.90
39033;DHT22;24794;51.982;5.878;2023-09-19T05:58:25;14.80;99.90
39033;DHT22;24794;51.982;5.878;2023-09-19T05:59:25;14.80;99.90
39033;DHT22;24794;51.982;5.878;2023-09-19T06:00:26;14.80;99.90
39033;DHT22;24794;51.982;5.878;2023-09-19T06:01:31;14.80;99.90
39033;DHT22;24794;51.982;5.878;2023-09-19T06:02:36;14.80;99.90
39033;DHT22;24794;51.982;5.878;2023-09-19T06:03:36;14.80;99.90
39033;DHT22;24794;51.982;5.878;2023-09-19T06:04:36;14.80;99.90
39033;DHT22;24794;51.982;5.878;2023-09-19T06:05:40;14.80;99.90
39033;DHT22;24794;51.982;5.878;2023-09-19T06:06:41;14.90;99.90
39033;DHT22;24794;51.982;5.878;2023-09-19T06:07:42;14.90;99.90
39033;DHT22;24794;51.982;5.878;2023-09-19T06:08:43;14.90;99.90
39033;DHT22;24794;51.982;5.878;2023-09-19T06:09:45;14.90;99.90
39033;DHT22;24794;51.982;5.878;2023-09-19T06:10:46;14.90;99.90
39033;DHT22;24794;51.982;5.878;2023-09-19T06:11:47;14.90;99.90
39033;DHT22;24794;51.982;5.878;2023-09-19T06:12:47;14.90;99.90
39033;DHT22;24794;51.982;5.878;2023-09-19T06:13:48;14.90;99.90
39033;DHT22;24794;51.982;5.878;2023-09-19T06:14:49;14.90;99.90
39033;DHT22;24794;51.982;5.878;2023-09-19T06:15:49;14.90;99.90
39033;DHT22;24794;51.982;5.878;2023-09-19T06:16:50;14.90;99.90
39033;DHT22;24794;51.982;5.878;2023-09-19T06:17:55;14.90;99.90
39033;DHT22;24794;51.982;5.878;2023-09-19T06:18:56;14.90;99.90
39033;DHT22;24794;51.982;5.878;2023-09-19T06:19:57;14.90;99.90
39033;DHT22;24794;51.982;5.878;2023-09-19T06:20:57;14.90;99.90
39033;DHT22;24794;51.982;5.878;2023-09-19T06:21:58;14.90;99.90
39033;DHT22;24794;51.982;5.878;2023-09-19T06:22:59;15.00;99.90
39033;DHT22;24794;51.982;5.878;2023-09-19T06:24:02;14.90;99.90
39033;DHT22;24794;51.982;5.878;2023-09-19T06:25:03;15.00;99.90
39033;DHT22;24794;51.982;5.878;2023-09-19T06:26:04;14.90;99.90
39033;DHT22;24794;51.982;5.878;2023-09-19T06:27:07;15.00;99.90
39033;DHT22;24794;51.982;5.878;2023-09-19T06:28:09;15.00;99.90
39033;DHT22;24794;51.982;5.878;2023-09-19T06:29:12;15.00;99.90
39033;DHT22;24794;51.982;5.878;2023-09-19T06:30:14;15.00;99.90
39033;DHT22;24794;51.982;5.878;2023-09-19T06:31:15;15.00;99.90
39033;DHT22;24794;51.982;5.878;2023-09-19T06:32:16;15.00;99.90
39033;DHT22;24794;51.982;5.878;2023-09-19T06:33:16;15.00;99.90
39033;DHT22;24794;51.982;5.878;2023-09-19T06:34:17;15.00;99.90
39033;DHT22;24794;51.982;5.878;2023-09-19T06:35:18;15.10;99.90
39033;DHT22;24794;51.982;5.878;2023-09-19T06:36:19;15.10;99.90
39033;DHT22;24794;51.982;5.878;2023-09-19T06:37:20;15.10;99.90
39033;DHT22;24794;51.982;5.878;2023-09-19T06:38:21;15.10;99.90
39033;DHT22;24794;51.982;5.878;2023-09-19T06:39:21;15.10;99.90
39033;DHT22;24794;51.982;5.878;2023-09-19T06:40:23;15.10;99.90